Flight Track Log - Related Links

Times and Time Zones

All times are in EST time to prevent confusion due to time zone crossing. See the N754DJ flight status page for this flight to view local times or setup timezone preferences in your user account.

Time Position Orientation Groundspeed Altitude Reporting Facility
EST Latitude Longitude Course Direction KTS MPH feet Rate Location/Type
Fri 12:24:56 PM 40.8697 -97.4972 92° East 145 167 4,700  Level Minneapolis Center
Fri 12:25:58 PM 40.8678 -97.4372 92° East 159 183 5,400 774 Climbing Minneapolis Center
Fri 12:27:00 PM 40.8667 -97.3750 91° East 167 192 6,300 780 Climbing Minneapolis Center
Fri 12:28:00 PM 40.8748 -97.1552 90° East  Level Estimated
Fri 12:28:01 PM 40.8653 -97.3183 92° East 164 189 7,000  Level Minneapolis Center
Fri 12:29:00 PM 40.8710 -97.0770 98° East  Level Estimated
Fri 12:29:03 PM 40.8636 -97.2425 92° East 170 196 7,700  Level Minneapolis Center
Fri 12:30:00 PM 40.8686 -96.9988 92° East  Level FlightAware Approximate
Fri 12:30:05 PM 40.8628 -97.1794 91° East 172 198 8,500  Level Minneapolis Center
Fri 12:31:07 PM 40.8603 -97.1161 93° East 173 199 9,200 677 Climbing Minneapolis Center
Fri 12:32:09 PM 40.8600 -97.0511 90° East 175 201 9,900 677 Climbing Minneapolis Center
Fri 12:33:11 PM 40.8569 -96.9853 93° East 178 205 10,600 677 Climbing Minneapolis Center
Fri 12:34:13 PM 40.8561 -96.9158 91° East 186 214 11,300 823 Climbing Minneapolis Center
Fri 12:35:15 PM 40.8550 -96.8347 91° East 185 213 12,300 823 Climbing Minneapolis Center
Fri 12:36:17 PM 40.8525 -96.7619 93° East 194 223 13,000 726 Climbing Minneapolis Center
Fri 12:37:19 PM 40.8506 -96.6903 92° East 196 226 13,800 774 Climbing Minneapolis Center
Fri 12:38:21 PM 40.8486 -96.6175 92° East 198 228 14,600 774 Climbing Minneapolis Center
Fri 12:39:23 PM 40.8469 -96.5444 92° East 198 228 15,400 774 Climbing Minneapolis Center
Fri 12:40:25 PM 40.8453 -96.4711 92° East 200 230 16,200 677 Climbing Minneapolis Center
Fri 12:41:27 PM 40.8414 -96.3781 93° East 209 241 16,800 387 Climbing Minneapolis Center
Fri 12:42:29 PM 40.8392 -96.2922 92° East 227 261 17,000 48 Climbing Minneapolis Center
Fri 12:43:31 PM 40.8369 -96.2019 92° East 241 277 16,900 -48 Descending Minneapolis Center
Fri 12:44:33 PM 40.8333 -96.1125 93° East 245 282 16,900  Level Minneapolis Center
Fri 12:45:35 PM 40.8306 -96.0231 92° East 245 282 16,900 48 Level Minneapolis Center
Fri 12:46:37 PM 40.8272 -95.9172 92° East 242 278 17,000 48 Climbing Minneapolis Center
Fri 12:47:39 PM 40.8244 -95.8314 92° East 238 274 17,000  Level Minneapolis Center
Fri 12:48:42 PM 40.8211 -95.7442 93° East 238 274 17,000  Level Minneapolis Center
Fri 12:49:44 PM 40.8186 -95.6581 92° East 237 273 17,000  Level Minneapolis Center
Fri 12:50:46 PM 40.8150 -95.5711 93° East 237 273 17,000  Level Minneapolis Center
Fri 12:51:48 PM 40.8119 -95.4842 93° East 238 274 17,000  Level Minneapolis Center
Fri 12:52:50 PM 40.8081 -95.3811 93° East 236 272 17,000 -48 Level Minneapolis Center
Fri 12:53:52 PM 40.8053 -95.2958 92° East 234 269 16,900 -48 Descending Minneapolis Center
Fri 12:54:54 PM 40.8017 -95.2097 93° East 235 270 16,900  Level Minneapolis Center
Fri 12:55:56 PM 40.7975 -95.1228 94° East 237 273 16,900  Level Minneapolis Center
Fri 12:56:58 PM 40.7939 -95.0389 93° East 233 268 16,900  Level Minneapolis Center
Fri 12:58:01 PM 40.7908 -94.9550 93° East 230 265 16,900  Level Minneapolis Center
Fri 12:59:05 PM 40.7864 -94.8517 93° East 235 270 16,900  Level Minneapolis Center
Fri 01:00:07 PM 40.7828 -94.7669 93° East 233 268 16,900  Level Minneapolis Center
Fri 01:01:09 PM 40.7783 -94.6797 94° East 236 272 16,900  Level Minneapolis Center
Fri 01:02:11 PM 40.7742 -94.5933 94° East 237 273 16,900 48 Level Minneapolis Center
Fri 01:03:14 PM 40.7708 -94.4983 93° East 239 275 17,000 48 Climbing Minneapolis Center
Fri 01:04:16 PM 40.7675 -94.4125 93° East 238 274 17,000  Level Minneapolis Center
Fri 01:05:18 PM 40.7606 -94.3264 96° East 238 274 17,000  Level Minneapolis Center
Fri 01:06:20 PM 40.7572 -94.2236 92° East 236 272 17,000  Level Minneapolis Center
Fri 01:07:22 PM 40.7525 -94.1367 94° East 238 274 17,000  Level Minneapolis Center
Fri 01:08:24 PM 40.7483 -94.0492 94° East 240 276 17,000  Level Minneapolis Center
Fri 01:09:26 PM 40.7444 -93.9664 94° East 232 267 17,000  Level Minneapolis Center
Fri 01:10:28 PM 40.7386 -93.8797 95° East 236 272 17,000  Level Minneapolis Center
Fri 01:11:30 PM 40.7342 -93.7742 93° East 240 276 17,000  Level Minneapolis Center
Fri 01:12:32 PM 40.7303 -93.6906 93° East 235 270 17,000 -48 Level Minneapolis Center
Fri 01:13:34 PM 40.7244 -93.6058 95° East 233 268 16,900 -48 Descending Minneapolis Center
Fri 01:14:36 PM 40.7203 -93.5208 94° East 234 269 16,900  Level Minneapolis Center
Fri 01:15:38 PM 40.7158 -93.4356 94° East 234 269 16,900  Level Minneapolis Center
Fri 01:16:41 PM 40.7092 -93.3317 95° East 237 273 16,900 47 Level Minneapolis Center
Fri 01:17:47 PM 40.7061 -93.2436 93° East 237 273 17,000 47 Climbing Chicago Center
Fri 01:18:49 PM 40.7014 -93.1592 94° East 234 269 17,000  Level Chicago Center
Fri 01:19:51 PM 40.6958 -93.0669 95° East 237 273 17,000  Level Chicago Center
Fri 01:20:53 PM 40.6903 -92.9697 94° East 236 272 17,000  Level Chicago Center
Fri 01:21:43 PM 40.6853 -92.9028 96° East 233 268 17,000  Level Chicago Center
Fri 01:22:45 PM 40.6814 -92.8175 93° East 232 267 17,000  Level Chicago Center
Fri 01:23:47 PM 40.6756 -92.7328 95° East 233 268 17,000  Level Chicago Center
Fri 01:24:49 PM 40.6706 -92.6469 94° East 234 269 17,000  Level Chicago Center
Fri 01:25:51 PM 40.6633 -92.5428 95° East 237 273 17,000  Level Chicago Center
Fri 01:26:53 PM 40.6586 -92.4589 94° East 233 268 17,000  Level Chicago Center
Fri 01:27:55 PM 40.6528 -92.3736 95° East 233 268 17,000  Level Chicago Center
Fri 01:28:57 PM 40.6469 -92.2894 95° East 232 267 17,000  Level Chicago Center
Fri 01:30:00 PM 40.6414 -92.2036 95° East 234 269 17,000  Level Chicago Center
Fri 01:31:02 PM 40.6369 -92.1169 94° East 236 272 17,000  Level Chicago Center
Fri 01:32:04 PM 40.6300 -92.0169 95° East 233 268 17,000  Level Chicago Center
Fri 01:33:06 PM 40.6239 -91.9314 95° East 234 269 17,000  Level Chicago Center
Fri 01:34:08 PM 40.6189 -91.8472 94° East 233 268 17,000  Level Chicago Center
Fri 01:35:10 PM 40.6122 -91.7647 96° East 230 265 17,000 46 Level Chicago Center
Fri 01:36:19 PM 40.6053 -91.6631 95° East 230 265 17,100 46 Climbing Kansas City Center
Fri 01:37:21 PM 40.5989 -91.5806 96° East 228 262 17,100  Level Kansas City Center
Fri 01:38:23 PM 40.5931 -91.4956 95° East 233 268 17,100 -48 Level Kansas City Center
Fri 01:39:25 PM 40.5867 -91.4114 96° East 233 268 17,000 -48 Descending Kansas City Center
Fri 01:40:27 PM 40.5794 -91.3089 95° East 235 270 17,000  Level Kansas City Center
Fri 01:41:29 PM 40.5733 -91.2244 95° East 234 269 17,000  Level Kansas City Center
Fri 01:42:31 PM 40.5667 -91.1392 96° East 235 270 17,000  Level Kansas City Center
Fri 01:43:33 PM 40.5611 -91.0572 95° East 230 265 17,000  Level Kansas City Center
Fri 01:44:29 PM 40.5544 -90.9758 96° East 227 261 17,000  Level Chicago Center
Fri 01:45:31 PM 40.5489 -90.8942 95° East 226 260 17,000  Level Chicago Center
Fri 01:46:33 PM 40.5419 -90.8114 96° East 229 264 17,000  Level Chicago Center
Fri 01:47:35 PM 40.5353 -90.7292 96° East 228 262 17,000  Level Chicago Center
Fri 01:48:37 PM 40.5281 -90.6289 95° East 230 265 17,000  Level Chicago Center
Fri 01:49:39 PM 40.5206 -90.5461 97° East 231 266 17,000  Level Chicago Center
Fri 01:50:42 PM 40.5139 -90.4639 96° East 228 262 17,000  Level Chicago Center
Fri 01:51:44 PM 40.5075 -90.3806 96° East 230 265 17,000  Level Chicago Center
Fri 01:52:46 PM 40.4997 -90.2967 97° East 232 267 17,000  Level Chicago Center
Fri 01:53:48 PM 40.4925 -90.1961 95° East 233 268 17,000  Level Chicago Center
Fri 01:54:50 PM 40.4847 -90.1106 97° East 236 272 17,000  Level Chicago Center
Fri 01:55:52 PM 40.4778 -90.0272 96° East 233 268 17,000  Level Chicago Center
Fri 01:56:55 PM 40.4711 -89.9436 96° East 231 266 17,000  Level Chicago Center
Fri 01:57:57 PM 40.4625 -89.8439 96° East 231 266 17,000  Level Chicago Center
Fri 01:58:59 PM 40.4525 -89.7589 99° East 233 268 17,000  Level Chicago Center
Fri 02:00:01 PM 40.4450 -89.6783 97° East 231 266 17,000  Level Chicago Center
Fri 02:01:03 PM 40.4397 -89.5947 95° East 230 265 17,000  Level Chicago Center
Fri 02:02:05 PM 40.4322 -89.5097 97° East 232 267 17,000  Level Chicago Center
Fri 02:03:07 PM 40.4219 -89.4108 98° East 231 266 17,000  Level Chicago Center
Fri 02:04:09 PM 40.4156 -89.3289 96° East 230 265 17,000  Level Chicago Center
Fri 02:05:11 PM 40.4081 -89.2475 97° East 228 262 17,000  Level Chicago Center
Fri 02:06:14 PM 40.4006 -89.1611 96° East 228 262 17,000  Level Chicago Center
Fri 02:07:16 PM 40.3942 -89.0786 96° East 228 262 17,000  Level Chicago Center
Fri 02:08:18 PM 40.3853 -89.0008 99° East 228 262 17,000  Level Chicago Center
Fri 02:09:20 PM 40.3758 -88.9000 97° East 233 268 17,000  Level Chicago Center
Fri 02:10:22 PM 40.3683 -88.8172 97° East 232 267 17,000  Level Chicago Center
Fri 02:11:24 PM 40.3608 -88.7319 97° East 235 270 17,000  Level Chicago Center
Fri 02:12:26 PM 40.3519 -88.6469 98° East 236 272 17,000  Level Chicago Center
Fri 02:13:28 PM 40.3433 -88.5622 98° East 235 270 17,000  Level Chicago Center
Fri 02:14:31 PM 40.3339 -88.4603 97° East 236 272 17,000  Level Chicago Center
Fri 02:15:32 PM 40.3253 -88.3786 98° East 232 267 17,000  Level Chicago Center
Fri 02:16:34 PM 40.3167 -88.2903 97° East 230 265 17,000 -48 Level Chicago Center
Fri 02:17:36 PM 40.3083 -88.2136 98° East 230 265 16,900 -384 Descending Chicago Center
Fri 02:18:39 PM 40.2997 -88.1258 97° East 240 276 16,200 -720 Descending Chicago Center
Fri 02:19:41 PM 40.2878 -88.0194 98° East 246 283 15,400 -629 Descending Chicago Center
Fri 02:20:43 PM 40.2797 -87.9317 97° East 245 282 14,900 -532 Descending Chicago Center
Fri 02:21:45 PM 40.2719 -87.8464 97° East 241 277 14,300 -581 Descending Chicago Center
Fri 02:22:47 PM 40.2625 -87.7617 98° East 239 275 13,700 -532 Descending Chicago Center
Fri 02:23:49 PM 40.2522 -87.6758 99° East 239 275 13,200 -629 Descending Chicago Center
Fri 02:24:51 PM 40.2381 -87.5725 100° East 241 277 12,400 -581 Descending Chicago Center
Fri 02:25:53 PM 40.2094 -87.4950 116° Southeast 240 276 12,000 -192 Descending Chicago Center
Fri 02:26:56 PM 40.1853 -87.4286 115° Southeast 230 265 12,000 -192 Level Chicago Center
Fri 02:27:58 PM 40.1700 -87.3375 102° East 228 262 11,600 -435 Descending Chicago Center
Fri 02:29:00 PM 40.1678 -87.2542 92° East 230 265 11,100 -290 Descending Chicago Center
Fri 02:30:02 PM 40.1667 -87.1747 91° East 223 257 11,000 -242 Descending Chicago Center
Fri 02:31:04 PM 40.1669 -87.0947 90° East 221 254 10,600 -532 Descending Chicago Center
Fri 02:32:06 PM 40.1642 -87.0122 92° East 226 260 9,900 -677 Descending Chicago Center
Fri 02:33:08 PM 40.1247 -86.9311 122° Southeast 221 254 9,200 -677 Descending Chicago Center
Fri 02:34:10 PM 40.0931 -86.8608 120° Southeast 224 258 8,500 -682 Descending Chicago Center
Fri 02:35:20 PM 40.0547 -86.7775 121° Southeast 222 255 7,700 -636 Descending Indianapolis Center
Fri 02:36:22 PM 40.0236 -86.7106 121° Southeast 220 253 7,100 -629 Descending Indianapolis Center
Fri 02:37:24 PM 39.9933 -86.6442 121° Southeast 217 250 6,400 -624 Descending Indianapolis Center
Fri 02:38:27 PM 39.9636 -86.5811 122° Southeast 211 243 5,800 -480 Descending Indianapolis Center
Fri 02:39:29 PM 39.9317 -86.5111 121° Southeast 206 237 5,400 -387 Descending Indianapolis Center

Login

Don't have an account? Register now (free) for customized features, flight alerts, and more!